Bowersville, Ohio
Current Conditions -  °F | °C
As of 9:54 PM on Sunday 21 Dec 2014 (Local Time) from KILN Reporting Station
Haze Haze  
Wind Chill: 20°   Ceiling: Unl
Heat Index: 27°   Visibility: 6mi
Dew Point: 23°   Wind: 6mph
Humidity: 85%   Direction: 70°ENE
Pressure: 30.13"   Gusts: NA
Location:  39.58°N, 83.72°W
Report Text: KILN 220254Z AUTO 07005KT 6SM BR CLR M03/M05 A3013 RMK AO2 SLP234 T10281050 58010
Loading
Personal Weather Stations






























Interactive Weather Map New forecast layout! Learn more

10-Day Weather Forecast

Advertisements
Track Severe Weather on mobile